sensor_id;sensor_type;location;lat;lon;timestamp;temperature;humidity
43089;DHT22;28709;52.030;5.652;2023-02-07T00:00:06;0.50;99.90
43089;DHT22;28709;52.030;5.652;2023-02-07T00:02:32;0.50;99.90
43089;DHT22;28709;52.030;5.652;2023-02-07T00:04:58;0.50;99.90
43089;DHT22;28709;52.030;5.652;2023-02-07T00:07:23;0.50;99.90
43089;DHT22;28709;52.030;5.652;2023-02-07T00:09:49;0.40;99.90
43089;DHT22;28709;52.030;5.652;2023-02-07T00:12:15;0.40;99.90
43089;DHT22;28709;52.030;5.652;2023-02-07T00:14:41;0.40;99.90
43089;DHT22;28709;52.030;5.652;2023-02-07T00:17:07;0.40;99.90
43089;DHT22;28709;52.030;5.652;2023-02-07T00:19:32;0.30;99.90
43089;DHT22;28709;52.030;5.652;2023-02-07T00:21:58;0.40;99.90
43089;DHT22;28709;52.030;5.652;2023-02-07T00:24:24;0.30;99.90
43089;DHT22;28709;52.030;5.652;2023-02-07T00:26:50;0.30;99.90
43089;DHT22;28709;52.030;5.652;2023-02-07T00:29:20;0.30;99.90
43089;DHT22;28709;52.030;5.652;2023-02-07T00:31:46;0.30;99.90
43089;DHT22;28709;52.030;5.652;2023-02-07T00:34:12;0.20;99.90
43089;DHT22;28709;52.030;5.652;2023-02-07T00:36:38;0.20;99.90
43089;DHT22;28709;52.030;5.652;2023-02-07T00:39:07;0.20;99.90
43089;DHT22;28709;52.030;5.652;2023-02-07T00:41:33;0.10;99.90
43089;DHT22;28709;52.030;5.652;2023-02-07T00:43:59;0.10;99.90
43089;DHT22;28709;52.030;5.652;2023-02-07T00:46:25;0.10;99.90
43089;DHT22;28709;52.030;5.652;2023-02-07T00:48:51;0.10;99.90
43089;DHT22;28709;52.030;5.652;2023-02-07T00:51:16;0.10;99.90
43089;DHT22;28709;52.030;5.652;2023-02-07T00:53:42;0.10;99.90
43089;DHT22;28709;52.030;5.652;2023-02-07T00:56:10;0.10;99.90
43089;DHT22;28709;52.030;5.652;2023-02-07T00:58:36;0.10;99.90
43089;DHT22;28709;52.030;5.652;2023-02-07T01:01:03;0.10;99.90
43089;DHT22;28709;52.030;5.652;2023-02-07T01:03:29;0.20;99.90
43089;DHT22;28709;52.030;5.652;2023-02-07T01:05:55;0.20;99.90
43089;DHT22;28709;52.030;5.652;2023-02-07T01:08:21;0.20;99.90
43089;DHT22;28709;52.030;5.652;2023-02-07T01:10:47;0.20;99.90
43089;DHT22;28709;52.030;5.652;2023-02-07T01:13:13;0.20;99.90
43089;DHT22;28709;52.030;5.652;2023-02-07T01:15:42;0.20;99.90
43089;DHT22;28709;52.030;5.652;2023-02-07T01:18:08;0.20;99.90
43089;DHT22;28709;52.030;5.652;2023-02-07T01:20:35;0.20;99.90
43089;DHT22;28709;52.030;5.652;2023-02-07T01:23:01;0.10;99.90
43089;DHT22;28709;52.030;5.652;2023-02-07T01:25:27;0.10;99.90
43089;DHT22;28709;52.030;5.652;2023-02-07T01:27:53;0.00;99.90
43089;DHT22;28709;52.030;5.652;2023-02-07T01:30:19;0.00;99.90
43089;DHT22;28709;52.030;5.652;2023-02-07T01:32:45;0.00;99.90
43089;DHT22;28709;52.030;5.652;2023-02-07T01:35:10;0.00;99.90
43089;DHT22;28709;52.030;5.652;2023-02-07T01:37:36;0.00;99.90
43089;DHT22;28709;52.030;5.652;2023-02-07T01:40:02;0.00;99.90
43089;DHT22;28709;52.030;5.652;2023-02-07T01:42:28;-0.10;99.90
43089;DHT22;28709;52.030;5.652;2023-02-07T01:45:02;-0.10;99.90
43089;DHT22;28709;52.030;5.652;2023-02-07T01:47:29;-0.10;99.90
43089;DHT22;28709;52.030;5.652;2023-02-07T01:49:56;-0.10;99.90
43089;DHT22;28709;52.030;5.652;2023-02-07T01:52:30;-0.10;99.90
43089;DHT22;28709;52.030;5.652;2023-02-07T01:55:02;-0.20;99.90
43089;DHT22;28709;52.030;5.652;2023-02-07T01:57:29;-0.20;99.90
43089;DHT22;28709;52.030;5.652;2023-02-07T01:59:56;-0.30;99.90
43089;DHT22;28709;52.030;5.652;2023-02-07T02:02:24;-0.30;99.90
43089;DHT22;28709;52.030;5.652;2023-02-07T02:04:53;-0.30;99.90
43089;DHT22;28709;52.030;5.652;2023-02-07T02:07:19;-0.40;99.90
43089;DHT22;28709;52.030;5.652;2023-02-07T02:09:44;-0.30;99.90
43089;DHT22;28709;52.030;5.652;2023-02-07T02:23:17;-0.60;99.90
43089;DHT22;28709;52.030;5.652;2023-02-07T02:29:07;-0.60;99.90
43089;DHT22;28709;52.030;5.652;2023-02-07T02:40:24;-0.70;99.90
43089;DHT22;28709;52.030;5.652;2023-02-07T02:43:30;-0.80;99.90
43089;DHT22;28709;52.030;5.652;2023-02-07T02:45:57;-0.80;99.90
43089;DHT22;28709;52.030;5.652;2023-02-07T02:48:25;-0.80;99.90
43089;DHT22;28709;52.030;5.652;2023-02-07T02:50:52;-0.90;99.90
43089;DHT22;28709;52.030;5.652;2023-02-07T02:53:18;-0.90;99.90
43089;DHT22;28709;52.030;5.652;2023-02-07T03:01:47;-0.90;99.90
43089;DHT22;28709;52.030;5.652;2023-02-07T03:07:10;-1.10;99.90
43089;DHT22;28709;52.030;5.652;2023-02-07T03:10:13;-1.10;99.90
43089;DHT22;28709;52.030;5.652;2023-02-07T03:21:26;-1.20;99.90
43089;DHT22;28709;52.030;5.652;2023-02-07T03:23:54;-1.20;99.90
43089;DHT22;28709;52.030;5.652;2023-02-07T03:26:22;-1.20;99.90
43089;DHT22;28709;52.030;5.652;2023-02-07T03:28:49;-1.20;99.90
43089;DHT22;28709;52.030;5.652;2023-02-07T03:31:16;-1.20;99.90
43089;DHT22;28709;52.030;5.652;2023-02-07T03:33:47;-1.20;99.90
43089;DHT22;28709;52.030;5.652;2023-02-07T03:36:21;-1.30;99.90
43089;DHT22;28709;52.030;5.652;2023-02-07T03:38:48;-1.40;99.90
43089;DHT22;28709;52.030;5.652;2023-02-07T03:41:30;-1.40;99.90
43089;DHT22;28709;52.030;5.652;2023-02-07T03:43:59;-1.30;99.90
43089;DHT22;28709;52.030;5.652;2023-02-07T03:46:35;-1.30;99.90
43089;DHT22;28709;52.030;5.652;2023-02-07T03:49:02;-1.30;99.90
43089;DHT22;28709;52.030;5.652;2023-02-07T03:51:28;-1.30;99.90
43089;DHT22;28709;52.030;5.652;2023-02-07T03:53:54;-1.30;99.90
43089;DHT22;28709;52.030;5.652;2023-02-07T03:56:19;-1.30;99.90
43089;DHT22;28709;52.030;5.652;2023-02-07T03:58:45;-1.30;99.90
43089;DHT22;28709;52.030;5.652;2023-02-07T04:01:10;-1.30;99.90
43089;DHT22;28709;52.030;5.652;2023-02-07T04:03:36;-1.40;99.90
43089;DHT22;28709;52.030;5.652;2023-02-07T04:06:02;-1.30;99.90
43089;DHT22;28709;52.030;5.652;2023-02-07T04:08:27;-1.40;99.90
43089;DHT22;28709;52.030;5.652;2023-02-07T04:11:00;-1.40;99.90
43089;DHT22;28709;52.030;5.652;2023-02-07T04:13:26;-1.40;99.90
43089;DHT22;28709;52.030;5.652;2023-02-07T04:15:52;-1.50;99.90
43089;DHT22;28709;52.030;5.652;2023-02-07T04:18:18;-1.50;99.90
43089;DHT22;28709;52.030;5.652;2023-02-07T04:20:43;-1.50;99.90
43089;DHT22;28709;52.030;5.652;2023-02-07T04:23:09;-1.50;99.90
43089;DHT22;28709;52.030;5.652;2023-02-07T04:25:35;-1.50;99.90
43089;DHT22;28709;52.030;5.652;2023-02-07T04:28:00;-1.50;99.90
43089;DHT22;28709;52.030;5.652;2023-02-07T04:30:26;-1.40;99.90
43089;DHT22;28709;52.030;5.652;2023-02-07T04:32:52;-1.40;99.90
43089;DHT22;28709;52.030;5.652;2023-02-07T04:35:17;-1.30;99.90
43089;DHT22;28709;52.030;5.652;2023-02-07T04:37:43;-1.30;99.90
43089;DHT22;28709;52.030;5.652;2023-02-07T04:40:09;-1.30;99.90
43089;DHT22;28709;52.030;5.652;2023-02-07T04:42:35;-1.40;99.90
43089;DHT22;28709;52.030;5.652;2023-02-07T04:45:01;-1.40;99.90
43089;DHT22;28709;52.030;5.652;2023-02-07T04:47:26;-1.50;99.90
43089;DHT22;28709;52.030;5.652;2023-02-07T04:49:52;-1.50;99.90
43089;DHT22;28709;52.030;5.652;2023-02-07T04:52:18;-1.50;99.90
43089;DHT22;28709;52.030;5.652;2023-02-07T04:54:43;-1.50;99.90
43089;DHT22;28709;52.030;5.652;2023-02-07T04:57:10;-1.60;99.90
43089;DHT22;28709;52.030;5.652;2023-02-07T04:59:36;-1.60;99.90
43089;DHT22;28709;52.030;5.652;2023-02-07T05:02:01;-1.50;99.90
43089;DHT22;28709;52.030;5.652;2023-02-07T05:04:27;-1.50;99.90
43089;DHT22;28709;52.030;5.652;2023-02-07T05:06:53;-1.50;99.90
43089;DHT22;28709;52.030;5.652;2023-02-07T05:09:18;-1.50;99.90
43089;DHT22;28709;52.030;5.652;2023-02-07T05:11:44;-1.50;99.90
43089;DHT22;28709;52.030;5.652;2023-02-07T05:14:10;-1.60;99.90
43089;DHT22;28709;52.030;5.652;2023-02-07T05:16:35;-1.70;99.90
43089;DHT22;28709;52.030;5.652;2023-02-07T05:19:01;-1.70;99.90
43089;DHT22;28709;52.030;5.652;2023-02-07T05:21:27;-1.70;99.90
43089;DHT22;28709;52.030;5.652;2023-02-07T05:23:53;-1.70;99.90
43089;DHT22;28709;52.030;5.652;2023-02-07T05:26:18;-1.80;99.90
43089;DHT22;28709;52.030;5.652;2023-02-07T05:28:44;-1.70;99.90
43089;DHT22;28709;52.030;5.652;2023-02-07T05:31:10;-1.70;99.90
43089;DHT22;28709;52.030;5.652;2023-02-07T05:33:35;-1.80;99.90
43089;DHT22;28709;52.030;5.652;2023-02-07T05:36:01;-1.80;99.90
43089;DHT22;28709;52.030;5.652;2023-02-07T05:38:27;-1.90;99.90
43089;DHT22;28709;52.030;5.652;2023-02-07T05:40:53;-1.90;99.90
43089;DHT22;28709;52.030;5.652;2023-02-07T05:43:19;-1.90;99.90
43089;DHT22;28709;52.030;5.652;2023-02-07T05:45:44;-1.90;99.90
43089;DHT22;28709;52.030;5.652;2023-02-07T05:48:11;-1.90;99.90
43089;DHT22;28709;52.030;5.652;2023-02-07T05:50:37;-1.90;99.90
43089;DHT22;28709;52.030;5.652;2023-02-07T05:53:03;-1.90;99.90
43089;DHT22;28709;52.030;5.652;2023-02-07T05:55:29;-1.90;99.90
43089;DHT22;28709;52.030;5.652;2023-02-07T05:57:55;-1.90;99.90
43089;DHT22;28709;52.030;5.652;2023-02-07T06:00:21;-1.90;99.90
43089;DHT22;28709;52.030;5.652;2023-02-07T06:02:47;-1.90;99.90
43089;DHT22;28709;52.030;5.652;2023-02-07T06:05:15;-1.90;99.90
43089;DHT22;28709;52.030;5.652;2023-02-07T06:07:41;-1.90;99.90
43089;DHT22;28709;52.030;5.652;2023-02-07T06:10:09;-2.00;99.90
43089;DHT22;28709;52.030;5.652;2023-02-07T06:12:34;-2.00;99.90
43089;DHT22;28709;52.030;5.652;2023-02-07T06:15:00;-2.00;99.90
43089;DHT22;28709;52.030;5.652;2023-02-07T06:17:26;-2.00;99.90
43089;DHT22;28709;52.030;5.652;2023-02-07T06:19:52;-2.00;99.90
43089;DHT22;28709;52.030;5.652;2023-02-07T06:22:18;-2.00;99.90
43089;DHT22;28709;52.030;5.652;2023-02-07T06:24:43;-2.00;99.90
43089;DHT22;28709;52.030;5.652;2023-02-07T06:27:09;-2.00;99.90
43089;DHT22;28709;52.030;5.652;2023-02-07T06:29:35;-2.10;99.90
43089;DHT22;28709;52.030;5.652;2023-02-07T06:32:00;-2.10;99.90
43089;DHT22;28709;52.030;5.652;2023-02-07T06:34:26;-2.10;99.90
43089;DHT22;28709;52.030;5.652;2023-02-07T06:36:52;-2.10;99.90
43089;DHT22;28709;52.030;5.652;2023-02-07T06:39:17;-2.20;99.90
43089;DHT22;28709;52.030;5.652;2023-02-07T06:41:43;-2.20;99.90
43089;DHT22;28709;52.030;5.652;2023-02-07T06:44:09;-2.20;99.90
43089;DHT22;28709;52.030;5.652;2023-02-07T06:46:34;-2.20;99.90
43089;DHT22;28709;52.030;5.652;2023-02-07T06:49:00;-2.20;99.90
43089;DHT22;28709;52.030;5.652;2023-02-07T06:51:26;-2.20;99.90
43089;DHT22;28709;52.030;5.652;2023-02-07T06:53:51;-2.20;99.90
43089;DHT22;28709;52.030;5.652;2023-02-07T06:56:17;-2.20;99.90
43089;DHT22;28709;52.030;5.652;2023-02-07T06:58:43;-2.30;99.90
43089;DHT22;28709;52.030;5.652;2023-02-07T07:01:08;-2.30;99.90
43089;DHT22;28709;52.030;5.652;2023-02-07T07:03:34;-2.30;99.90
43089;DHT22;28709;52.030;5.652;2023-02-07T07:06:00;-2.20;99.90
43089;DHT22;28709;52.030;5.652;2023-02-07T07:08:26;-2.20;99.90
43089;DHT22;28709;52.030;5.652;2023-02-07T07:10:53;-2.20;99.90
43089;DHT22;28709;52.030;5.652;2023-02-07T07:13:18;-2.10;99.90
43089;DHT22;28709;52.030;5.652;2023-02-07T07:15:45;-2.10;99.90
43089;DHT22;28709;52.030;5.652;2023-02-07T07:18:11;-2.10;99.90
43089;DHT22;28709;52.030;5.652;2023-02-07T07:20:36;-2.10;99.90
43089;DHT22;28709;52.030;5.652;2023-02-07T07:23:02;-2.00;99.90
43089;DHT22;28709;52.030;5.652;2023-02-07T07:25:28;-1.90;99.90
43089;DHT22;28709;52.030;5.652;2023-02-07T07:27:53;-1.90;99.90
43089;DHT22;28709;52.030;5.652;2023-02-07T07:30:19;-1.80;99.90
43089;DHT22;28709;52.030;5.652;2023-02-07T07:32:46;-1.80;99.90
43089;DHT22;28709;52.030;5.652;2023-02-07T07:35:11;-1.80;99.90
43089;DHT22;28709;52.030;5.652;2023-02-07T07:37:37;-1.70;99.90
43089;DHT22;28709;52.030;5.652;2023-02-07T07:40:03;-1.70;99.90
43089;DHT22;28709;52.030;5.652;2023-02-07T07:42:29;-1.70;99.90
43089;DHT22;28709;52.030;5.652;2023-02-07T07:44:55;-1.60;99.90
43089;DHT22;28709;52.030;5.652;2023-02-07T07:47:20;-1.60;99.90
43089;DHT22;28709;52.030;5.652;2023-02-07T07:49:46;-1.60;99.90
43089;DHT22;28709;52.030;5.652;2023-02-07T07:52:12;-1.50;99.90
43089;DHT22;28709;52.030;5.652;2023-02-07T07:54:37;-1.20;99.90
43089;DHT22;28709;52.030;5.652;2023-02-07T07:57:03;-0.70;99.90
43089;DHT22;28709;52.030;5.652;2023-02-07T07:59:29;-0.30;99.90
43089;DHT22;28709;52.030;5.652;2023-02-07T08:01:54;0.00;99.90
43089;DHT22;28709;52.030;5.652;2023-02-07T08:04:20;0.40;99.90
43089;DHT22;28709;52.030;5.652;2023-02-07T08:06:46;0.70;99.90
43089;DHT22;28709;52.030;5.652;2023-02-07T08:09:12;1.00;99.90
43089;DHT22;28709;52.030;5.652;2023-02-07T08:11:38;1.40;99.90
43089;DHT22;28709;52.030;5.652;2023-02-07T08:14:03;1.70;99.90
43089;DHT22;28709;52.030;5.652;2023-02-07T08:16:29;1.90;99.90
43089;DHT22;28709;52.030;5.652;2023-02-07T08:18:54;2.00;99.90
43089;DHT22;28709;52.030;5.652;2023-02-07T08:21:20;1.90;99.90
43089;DHT22;28709;52.030;5.652;2023-02-07T08:23:46;1.70;99.90
43089;DHT22;28709;52.030;5.652;2023-02-07T08:26:12;1.40;99.90
43089;DHT22;28709;52.030;5.652;2023-02-07T08:28:37;1.10;99.90
43089;DHT22;28709;52.030;5.652;2023-02-07T08:31:04;0.90;99.90
43089;DHT22;28709;52.030;5.652;2023-02-07T08:33:31;0.70;99.90
43089;DHT22;28709;52.030;5.652;2023-02-07T08:35:57;0.60;99.90
43089;DHT22;28709;52.030;5.652;2023-02-07T08:38:24;0.40;99.90
43089;DHT22;28709;52.030;5.652;2023-02-07T08:40:50;0.40;99.90
43089;DHT22;28709;52.030;5.652;2023-02-07T08:43:16;0.40;99.90
43089;DHT22;28709;52.030;5.652;2023-02-07T08:45:45;0.40;99.90
43089;DHT22;28709;52.030;5.652;2023-02-07T08:48:11;0.30;99.90
43089;DHT22;28709;52.030;5.652;2023-02-07T08:50:37;0.20;99.90
43089;DHT22;28709;52.030;5.652;2023-02-07T08:53:03;0.20;99.90
43089;DHT22;28709;52.030;5.652;2023-02-07T08:55:28;0.20;99.90
43089;DHT22;28709;52.030;5.652;2023-02-07T08:57:55;0.20;99.90
43089;DHT22;28709;52.030;5.652;2023-02-07T09:00:20;0.30;99.90
43089;DHT22;28709;52.030;5.652;2023-02-07T09:02:46;0.30;99.90
43089;DHT22;28709;52.030;5.652;2023-02-07T09:05:12;0.30;99.90
43089;DHT22;28709;52.030;5.652;2023-02-07T09:07:37;0.40;99.90
43089;DHT22;28709;52.030;5.652;2023-02-07T09:10:05;0.40;99.90
43089;DHT22;28709;52.030;5.652;2023-02-07T09:12:32;0.40;99.90
43089;DHT22;28709;52.030;5.652;2023-02-07T09:14:58;0.50;99.90
43089;DHT22;28709;52.030;5.652;2023-02-07T09:17:24;0.60;99.90
43089;DHT22;28709;52.030;5.652;2023-02-07T09:19:50;0.90;99.90
43089;DHT22;28709;52.030;5.652;2023-02-07T09:22:15;1.50;99.90
43089;DHT22;28709;52.030;5.652;2023-02-07T09:24:41;2.30;99.90
43089;DHT22;28709;52.030;5.652;2023-02-07T09:27:07;3.00;99.90
43089;DHT22;28709;52.030;5.652;2023-02-07T09:29:33;3.60;99.90
43089;DHT22;28709;52.030;5.652;2023-02-07T09:31:58;4.10;99.90
43089;DHT22;28709;52.030;5.652;2023-02-07T09:34:24;4.40;99.90
43089;DHT22;28709;52.030;5.652;2023-02-07T09:36:50;4.80;99.90
43089;DHT22;28709;52.030;5.652;2023-02-07T09:39:16;5.10;99.90
43089;DHT22;28709;52.030;5.652;2023-02-07T09:44:16;5.70;99.90
43089;DHT22;28709;52.030;5.652;2023-02-07T09:47:05;6.00;99.90
43089;DHT22;28709;52.030;5.652;2023-02-07T09:49:38;6.20;99.90
43089;DHT22;28709;52.030;5.652;2023-02-07T09:52:12;6.50;99.90
43089;DHT22;28709;52.030;5.652;2023-02-07T09:54:41;6.80;99.90
43089;DHT22;28709;52.030;5.652;2023-02-07T09:57:13;7.10;99.90
43089;DHT22;28709;52.030;5.652;2023-02-07T10:00:03;7.30;99.90
43089;DHT22;28709;52.030;5.652;2023-02-07T10:02:37;7.60;99.90
43089;DHT22;28709;52.030;5.652;2023-02-07T10:05:30;7.50;99.90
43089;DHT22;28709;52.030;5.652;2023-02-07T10:07:59;7.40;99.90
43089;DHT22;28709;52.030;5.652;2023-02-07T10:18:58;8.10;99.90
43089;DHT22;28709;52.030;5.652;2023-02-07T10:26:51;8.20;99.90
43089;DHT22;28709;52.030;5.652;2023-02-07T10:29:36;8.30;99.90
43089;DHT22;28709;52.030;5.652;2023-02-07T10:32:33;8.40;99.90
43089;DHT22;28709;52.030;5.652;2023-02-07T10:35:29;8.30;99.90
43089;DHT22;28709;52.030;5.652;2023-02-07T10:38:00;8.30;99.90
43089;DHT22;28709;52.030;5.652;2023-02-07T10:40:41;8.50;99.90
43089;DHT22;28709;52.030;5.652;2023-02-07T10:43:35;8.60;99.90
43089;DHT22;28709;52.030;5.652;2023-02-07T10:46:05;8.60;99.90
43089;DHT22;28709;52.030;5.652;2023-02-07T10:48:34;8.40;99.90
43089;DHT22;28709;52.030;5.652;2023-02-07T10:53:45;8.30;99.90
43089;DHT22;28709;52.030;5.652;2023-02-07T10:56:21;8.50;99.90
43089;DHT22;28709;52.030;5.652;2023-02-07T10:58:48;8.60;99.90
43089;DHT22;28709;52.030;5.652;2023-02-07T11:01:22;8.90;99.90
43089;DHT22;28709;52.030;5.652;2023-02-07T11:03:49;9.10;99.90
43089;DHT22;28709;52.030;5.652;2023-02-07T11:06:23;9.10;99.70
43089;DHT22;28709;52.030;5.652;2023-02-07T11:08:49;9.10;99.70
43089;DHT22;28709;52.030;5.652;2023-02-07T11:11:26;9.40;99.60
43089;DHT22;28709;52.030;5.652;2023-02-07T11:13:53;9.80;98.60
43089;DHT22;28709;52.030;5.652;2023-02-07T11:16:21;10.20;98.60
43089;DHT22;28709;52.030;5.652;2023-02-07T11:19:05;10.40;98.30
43089;DHT22;28709;52.030;5.652;2023-02-07T11:21:39;10.70;98.00
43089;DHT22;28709;52.030;5.652;2023-02-07T11:24:13;11.00;96.10
43089;DHT22;28709;52.030;5.652;2023-02-07T11:27:31;10.90;96.00
43089;DHT22;28709;52.030;5.652;2023-02-07T11:30:05;10.60;94.90
43089;DHT22;28709;52.030;5.652;2023-02-07T11:32:31;10.30;95.30
43089;DHT22;28709;52.030;5.652;2023-02-07T11:35:04;10.20;95.20
43089;DHT22;28709;52.030;5.652;2023-02-07T11:37:45;10.10;95.70
43089;DHT22;28709;52.030;5.652;2023-02-07T11:42:47;10.70;95.00
43089;DHT22;28709;52.030;5.652;2023-02-07T11:45:16;10.80;94.50
43089;DHT22;28709;52.030;5.652;2023-02-07T11:47:45;11.00;94.50
43089;DHT22;28709;52.030;5.652;2023-02-07T11:50:22;11.30;94.20
43089;DHT22;28709;52.030;5.652;2023-02-07T11:52:56;11.50;94.00
43089;DHT22;28709;52.030;5.652;2023-02-07T11:55:26;11.80;93.80
43089;DHT22;28709;52.030;5.652;2023-02-07T11:57:56;12.10;92.70
43089;DHT22;28709;52.030;5.652;2023-02-07T12:00:26;12.30;92.40
43089;DHT22;28709;52.030;5.652;2023-02-07T12:03:04;12.50;92.00
43089;DHT22;28709;52.030;5.652;2023-02-07T12:05:37;12.90;92.00
43089;DHT22;28709;52.030;5.652;2023-02-07T12:08:14;13.30;91.20
43089;DHT22;28709;52.030;5.652;2023-02-07T12:10:44;13.60;91.10
43089;DHT22;28709;52.030;5.652;2023-02-07T12:13:34;14.00;90.40
43089;DHT22;28709;52.030;5.652;2023-02-07T12:16:10;14.10;90.30
43089;DHT22;28709;52.030;5.652;2023-02-07T12:18:40;14.30;87.80
43089;DHT22;28709;52.030;5.652;2023-02-07T12:21:27;14.20;87.20
43089;DHT22;28709;52.030;5.652;2023-02-07T12:26:29;14.70;86.50
43089;DHT22;28709;52.030;5.652;2023-02-07T12:39:57;14.70;82.90
43089;DHT22;28709;52.030;5.652;2023-02-07T12:51:37;15.70;79.30
43089;DHT22;28709;52.030;5.652;2023-02-07T12:54:26;15.60;77.50
43089;DHT22;28709;52.030;5.652;2023-02-07T12:57:15;15.50;78.00
43089;DHT22;28709;52.030;5.652;2023-02-07T13:07:46;16.70;72.50
43089;DHT22;28709;52.030;5.652;2023-02-07T13:13:22;16.10;72.60
43089;DHT22;28709;52.030;5.652;2023-02-07T13:18:30;15.80;74.80
43089;DHT22;28709;52.030;5.652;2023-02-07T13:23:35;16.70;74.10
43089;DHT22;28709;52.030;5.652;2023-02-07T13:26:12;16.80;72.80
43089;DHT22;28709;52.030;5.652;2023-02-07T13:28:58;16.70;72.10
43089;DHT22;28709;52.030;5.652;2023-02-07T13:31:46;16.70;72.30
43089;DHT22;28709;52.030;5.652;2023-02-07T13:34:17;16.90;72.10
43089;DHT22;28709;52.030;5.652;2023-02-07T13:36:46;17.20;71.90
43089;DHT22;28709;52.030;5.652;2023-02-07T13:39:41;17.70;70.50
43089;DHT22;28709;52.030;5.652;2023-02-07T13:45:05;18.20;68.10
43089;DHT22;28709;52.030;5.652;2023-02-07T13:55:35;17.60;64.90
43089;DHT22;28709;52.030;5.652;2023-02-07T13:58:03;17.60;64.50
43089;DHT22;28709;52.030;5.652;2023-02-07T14:03:22;16.20;63.50
43089;DHT22;28709;52.030;5.652;2023-02-07T14:05:52;15.70;64.50
43089;DHT22;28709;52.030;5.652;2023-02-07T14:13:39;14.80;65.50
43089;DHT22;28709;52.030;5.652;2023-02-07T14:16:08;13.80;66.30
43089;DHT22;28709;52.030;5.652;2023-02-07T14:18:49;12.90;67.40
43089;DHT22;28709;52.030;5.652;2023-02-07T14:31:50;8.60;74.30
43089;DHT22;28709;52.030;5.652;2023-02-07T14:34:20;8.30;74.90
43089;DHT22;28709;52.030;5.652;2023-02-07T14:36:46;7.90;75.40
43089;DHT22;28709;52.030;5.652;2023-02-07T14:41:40;7.50;76.70
43089;DHT22;28709;52.030;5.652;2023-02-07T14:46:57;7.00;78.00
43089;DHT22;28709;52.030;5.652;2023-02-07T14:49:31;6.80;79.00
43089;DHT22;28709;52.030;5.652;2023-02-07T14:52:07;6.60;79.70
43089;DHT22;28709;52.030;5.652;2023-02-07T14:57:30;6.40;82.50
43089;DHT22;28709;52.030;5.652;2023-02-07T15:00:03;6.20;82.80
43089;DHT22;28709;52.030;5.652;2023-02-07T15:05:28;6.10;83.30
43089;DHT22;28709;52.030;5.652;2023-02-07T15:08:33;6.00;83.50
43089;DHT22;28709;52.030;5.652;2023-02-07T15:18:47;5.80;85.20
43089;DHT22;28709;52.030;5.652;2023-02-07T15:21:25;5.80;86.00
43089;DHT22;28709;52.030;5.652;2023-02-07T15:27:00;5.70;87.40
43089;DHT22;28709;52.030;5.652;2023-02-07T15:29:35;5.70;88.60
43089;DHT22;28709;52.030;5.652;2023-02-07T15:34:46;5.60;89.20
43089;DHT22;28709;52.030;5.652;2023-02-07T15:37:15;5.50;89.80
43089;DHT22;28709;52.030;5.652;2023-02-07T15:39:41;5.50;89.50
43089;DHT22;28709;52.030;5.652;2023-02-07T15:42:16;5.40;89.50
43089;DHT22;28709;52.030;5.652;2023-02-07T15:44:48;5.40;90.10
43089;DHT22;28709;52.030;5.652;2023-02-07T15:47:34;5.40;90.40
43089;DHT22;28709;52.030;5.652;2023-02-07T15:54:53;5.20;91.30
43089;DHT22;28709;52.030;5.652;2023-02-07T15:57:40;5.20;91.40
43089;DHT22;28709;52.030;5.652;2023-02-07T16:00:20;5.30;91.40
43089;DHT22;28709;52.030;5.652;2023-02-07T16:03:17;5.30;91.70
43089;DHT22;28709;52.030;5.652;2023-02-07T16:05:43;5.20;92.00
43089;DHT22;28709;52.030;5.652;2023-02-07T16:08:28;5.10;92.30
43089;DHT22;28709;52.030;5.652;2023-02-07T16:11:52;5.00;92.50
43089;DHT22;28709;52.030;5.652;2023-02-07T16:16:51;4.90;92.90
43089;DHT22;28709;52.030;5.652;2023-02-07T16:19:28;4.80;93.00
43089;DHT22;28709;52.030;5.652;2023-02-07T16:22:01;4.80;93.20
43089;DHT22;28709;52.030;5.652;2023-02-07T16:24:31;4.80;93.40
43089;DHT22;28709;52.030;5.652;2023-02-07T16:26:59;4.70;93.60
43089;DHT22;28709;52.030;5.652;2023-02-07T16:29:25;4.60;93.70
43089;DHT22;28709;52.030;5.652;2023-02-07T16:31:51;4.60;93.90
43089;DHT22;28709;52.030;5.652;2023-02-07T16:34:18;4.50;94.10
43089;DHT22;28709;52.030;5.652;2023-02-07T16:36:48;4.50;94.20
43089;DHT22;28709;52.030;5.652;2023-02-07T16:39:14;4.50;94.30
43089;DHT22;28709;52.030;5.652;2023-02-07T16:41:43;4.40;94.50
43089;DHT22;28709;52.030;5.652;2023-02-07T16:44:17;4.30;94.60
43089;DHT22;28709;52.030;5.652;2023-02-07T16:46:43;4.30;94.80
43089;DHT22;28709;52.030;5.652;2023-02-07T16:49:13;4.30;94.90
43089;DHT22;28709;52.030;5.652;2023-02-07T16:51:40;4.20;95.00
43089;DHT22;28709;52.030;5.652;2023-02-07T16:54:06;4.10;95.10
43089;DHT22;28709;52.030;5.652;2023-02-07T16:56:31;4.10;95.20
43089;DHT22;28709;52.030;5.652;2023-02-07T16:58:57;4.00;95.30
43089;DHT22;28709;52.030;5.652;2023-02-07T17:01:23;3.90;95.50
43089;DHT22;28709;52.030;5.652;2023-02-07T17:03:48;3.80;95.70
43089;DHT22;28709;52.030;5.652;2023-02-07T17:06:19;3.60;95.80
43089;DHT22;28709;52.030;5.652;2023-02-07T17:08:46;3.60;96.00
43089;DHT22;28709;52.030;5.652;2023-02-07T17:11:20;3.40;96.10
43089;DHT22;28709;52.030;5.652;2023-02-07T17:13:59;3.40;96.30
43089;DHT22;28709;52.030;5.652;2023-02-07T17:16:26;3.30;96.40
43089;DHT22;28709;52.030;5.652;2023-02-07T17:18:52;3.30;96.60
43089;DHT22;28709;52.030;5.652;2023-02-07T17:21:18;3.20;96.80
43089;DHT22;28709;52.030;5.652;2023-02-07T17:23:46;3.20;97.10
43089;DHT22;28709;52.030;5.652;2023-02-07T17:26:22;3.20;97.50
43089;DHT22;28709;52.030;5.652;2023-02-07T17:28:50;3.10;97.80
43089;DHT22;28709;52.030;5.652;2023-02-07T17:31:15;3.10;97.90
43089;DHT22;28709;52.030;5.652;2023-02-07T17:33:41;3.00;98.20
43089;DHT22;28709;52.030;5.652;2023-02-07T17:36:10;2.90;98.40
43089;DHT22;28709;52.030;5.652;2023-02-07T17:38:36;2.90;98.70
43089;DHT22;28709;52.030;5.652;2023-02-07T17:41:02;2.90;99.30
43089;DHT22;28709;52.030;5.652;2023-02-07T17:43:28;2.80;99.60
43089;DHT22;28709;52.030;5.652;2023-02-07T17:45:53;2.80;99.90
43089;DHT22;28709;52.030;5.652;2023-02-07T17:48:19;2.80;99.90
43089;DHT22;28709;52.030;5.652;2023-02-07T17:50:45;2.70;99.90
43089;DHT22;28709;52.030;5.652;2023-02-07T17:53:10;2.80;99.90
43089;DHT22;28709;52.030;5.652;2023-02-07T17:55:37;2.70;99.90
43089;DHT22;28709;52.030;5.652;2023-02-07T17:58:03;2.70;99.90
43089;DHT22;28709;52.030;5.652;2023-02-07T18:00:32;2.60;99.90
43089;DHT22;28709;52.030;5.652;2023-02-07T18:02:58;2.50;99.90
43089;DHT22;28709;52.030;5.652;2023-02-07T18:05:24;2.50;99.90
43089;DHT22;28709;52.030;5.652;2023-02-07T18:07:50;2.50;99.90
43089;DHT22;28709;52.030;5.652;2023-02-07T18:10:19;2.40;99.90
43089;DHT22;28709;52.030;5.652;2023-02-07T18:12:45;2.40;99.90
43089;DHT22;28709;52.030;5.652;2023-02-07T18:15:12;2.30;99.90
43089;DHT22;28709;52.030;5.652;2023-02-07T18:17:39;2.20;99.90
43089;DHT22;28709;52.030;5.652;2023-02-07T18:20:06;2.10;99.90
43089;DHT22;28709;52.030;5.652;2023-02-07T18:22:32;2.10;99.90
43089;DHT22;28709;52.030;5.652;2023-02-07T18:24:58;2.10;99.90
43089;DHT22;28709;52.030;5.652;2023-02-07T18:27:24;2.00;99.90
43089;DHT22;28709;52.030;5.652;2023-02-07T18:29:49;1.90;99.90
43089;DHT22;28709;52.030;5.652;2023-02-07T18:32:15;1.90;99.90